createdAt,value
2018-08-07T00:05:01.279Z,2.17
2018-08-07T00:10:06.305Z,2.40
2018-08-07T00:15:10.754Z,2.17
2018-08-07T00:20:15.234Z,2.23
2018-08-07T00:25:18.454Z,1.80
2018-08-07T00:30:21.849Z,2.03
2018-08-07T00:35:25.093Z,2.33
2018-08-07T00:40:28.606Z,2.13
2018-08-07T00:45:31.850Z,2.20
2018-08-07T00:50:35.003Z,2.53
2018-08-07T00:55:38.197Z,1.87
2018-08-07T01:00:41.470Z,2.43
2018-08-07T01:05:44.896Z,2.10
2018-08-07T01:10:48.127Z,2.33
2018-08-07T01:15:51.445Z,2.10
2018-08-07T01:20:54.862Z,2.27
2018-08-07T01:25:58.110Z,2.07
2018-08-07T01:31:01.632Z,2.13
2018-08-07T01:36:05.683Z,2.20
2018-08-07T01:41:09.142Z,1.70
2018-08-07T01:46:12.374Z,2.10
2018-08-07T01:51:15.816Z,2.10
2018-08-07T01:56:19.077Z,1.73
2018-08-07T02:01:22.297Z,2.10
2018-08-07T02:06:25.814Z,2.33
2018-08-07T02:11:28.977Z,2.20
2018-08-07T02:16:32.158Z,2.23
2018-08-07T02:21:35.418Z,1.93
2018-08-07T02:26:38.972Z,2.30
2018-08-07T02:31:42.196Z,2.13
2018-08-07T02:36:45.646Z,2.40
2018-08-07T02:41:49.327Z,2.13
2018-08-07T02:46:52.942Z,2.90
2018-08-07T02:51:56.996Z,2.00
2018-08-07T02:57:00.214Z,1.90
2018-08-07T03:02:03.455Z,2.10
2018-08-07T03:07:06.869Z,2.10
2018-08-07T03:12:10.123Z,2.13
2018-08-07T03:17:13.401Z,2.00
2018-08-07T03:22:16.605Z,1.90
2018-08-07T03:27:19.826Z,2.40
2018-08-07T03:32:23.086Z,2.10
2018-08-07T03:37:26.674Z,1.80
2018-08-07T03:42:29.967Z,1.93
2018-08-07T03:47:33.370Z,2.00
2018-08-07T03:52:36.636Z,2.50
2018-08-07T03:57:40.408Z,2.30
2018-08-07T04:02:43.717Z,2.30
2018-08-07T04:07:46.968Z,2.23
2018-08-07T04:12:50.166Z,2.57
2018-08-07T04:17:53.431Z,2.40
2018-08-07T04:22:56.753Z,2.20
2018-08-07T04:28:00.005Z,2.00
2018-08-07T04:33:03.236Z,2.40
2018-08-07T04:38:06.651Z,2.47
2018-08-07T04:43:10.696Z,2.33
2018-08-07T04:48:13.764Z,2.23
2018-08-07T04:53:17.202Z,2.10
2018-08-07T04:58:21.155Z,2.23
2018-08-07T05:03:24.636Z,2.53
2018-08-07T05:08:28.156Z,2.27
2018-08-07T05:13:31.469Z,2.40
2018-08-07T05:18:35.014Z,2.30
2018-08-07T05:23:38.242Z,2.30
2018-08-07T05:28:41.949Z,2.77
2018-08-07T05:33:45.635Z,2.23
2018-08-07T05:38:48.943Z,2.00
2018-08-07T05:43:52.666Z,2.30
2018-08-07T05:48:56.160Z,2.30
2018-08-07T05:54:00.014Z,2.50
2018-08-07T05:59:03.532Z,2.33
2018-08-07T06:04:06.987Z,1.93
2018-08-07T06:09:10.575Z,1.87
2018-08-07T06:14:13.918Z,2.37
2018-08-07T06:19:17.505Z,2.60
2018-08-07T06:24:20.628Z,2.27
2018-08-07T06:29:24.105Z,2.67
2018-08-07T06:34:27.434Z,2.03
2018-08-07T06:39:30.854Z,1.90
2018-08-07T06:44:34.250Z,1.93
2018-08-07T06:49:37.547Z,1.90
2018-08-07T06:54:40.919Z,2.00
2018-08-07T06:59:44.543Z,1.90
2018-08-07T07:04:48.464Z,2.23
2018-08-07T07:09:52.418Z,2.10
2018-08-07T07:14:55.894Z,1.90
2018-08-07T07:19:59.753Z,1.73
2018-08-07T07:25:03.522Z,1.70
2018-08-07T07:30:11.393Z,1.77
2018-08-07T07:35:15.340Z,1.50
2018-08-07T07:40:19.439Z,2.27
2018-08-07T07:45:23.019Z,2.17
2018-08-07T07:50:26.659Z,2.00
2018-08-07T07:55:30.266Z,1.77
2018-08-07T08:00:33.604Z,2.73
2018-08-07T08:05:37.298Z,1.80
2018-08-07T08:10:40.533Z,2.33
2018-08-07T08:15:43.774Z,1.97
2018-08-07T08:20:47.782Z,1.80
2018-08-07T08:25:51.328Z,1.90
2018-08-07T08:30:54.857Z,2.13
2018-08-07T08:35:58.334Z,2.10
2018-08-07T08:41:01.797Z,1.67
2018-08-07T08:46:05.698Z,2.00
2018-08-07T08:51:09.078Z,2.33
2018-08-07T08:56:12.430Z,2.33
2018-08-07T09:01:15.723Z,1.57
2018-08-07T09:06:19.035Z,2.10
2018-08-07T09:11:23.047Z,1.63
2018-08-07T09:16:29.526Z,2.50
2018-08-07T09:21:32.983Z,1.90
2018-08-07T09:26:36.333Z,1.97
2018-08-07T09:31:39.725Z,2.10
2018-08-07T09:36:43.821Z,2.03
2018-08-07T09:41:47.212Z,2.43
2018-08-07T09:46:50.707Z,2.10
2018-08-07T09:51:54.042Z,1.73
2018-08-07T09:56:57.701Z,1.87
2018-08-07T10:02:06.582Z,2.00
2018-08-07T10:07:09.819Z,2.00
2018-08-07T10:12:13.619Z,1.90
2018-08-07T10:17:16.832Z,2.00
2018-08-07T10:22:20.252Z,1.80
2018-08-07T10:27:24.130Z,1.80
2018-08-07T10:32:27.986Z,2.00
2018-08-07T10:37:32.084Z,1.87
2018-08-07T10:42:35.775Z,1.80
2018-08-07T10:47:39.697Z,1.90
2018-08-07T10:52:42.982Z,2.30
2018-08-07T10:57:47.765Z,2.10
2018-08-07T11:02:51.982Z,1.50
2018-08-07T11:07:56.070Z,1.67
2018-08-07T11:13:00.567Z,1.70
2018-08-07T11:18:04.439Z,1.77
2018-08-07T11:23:07.666Z,2.10
2018-08-07T11:28:12.257Z,1.90
2018-08-07T11:33:16.622Z,2.10
2018-08-07T11:38:19.955Z,1.77
2018-08-07T11:43:23.546Z,2.20
2018-08-07T11:48:27.031Z,2.10
2018-08-07T11:53:31.071Z,2.20
2018-08-07T11:58:34.931Z,1.90
2018-08-07T12:03:39.240Z,2.23
2018-08-07T12:08:42.572Z,2.07
2018-08-07T12:13:46.288Z,2.30
2018-08-07T12:18:49.888Z,2.00
2018-08-07T12:23:54.118Z,2.30
2018-08-07T12:28:59.351Z,2.37
2018-08-07T12:34:03.484Z,2.10
2018-08-07T12:39:07.920Z,2.37
2018-08-07T12:44:36.485Z,2.00
2018-08-07T12:49:40.497Z,1.80
2018-08-07T12:54:44.107Z,1.90
2018-08-07T12:59:48.641Z,1.60
2018-08-07T13:04:52.966Z,1.90
2018-08-07T13:09:56.455Z,1.83
2018-08-07T13:14:59.870Z,1.90
2018-08-07T13:20:04.730Z,1.77
2018-08-07T13:25:10.571Z,1.80
2018-08-07T13:30:16.078Z,2.10
2018-08-07T13:35:19.565Z,2.20
2018-08-07T13:40:24.185Z,2.00
2018-08-07T13:45:27.981Z,1.80
2018-08-07T13:50:31.375Z,2.40
2018-08-07T13:55:34.708Z,2.33
2018-08-07T14:00:37.951Z,2.77
2018-08-07T14:05:42.243Z,2.50
2018-08-07T14:10:45.489Z,2.10
2018-08-07T14:15:49.084Z,2.10
2018-08-07T14:20:52.465Z,1.70
2018-08-07T14:25:56.372Z,1.60
2018-08-07T14:30:59.937Z,1.80
2018-08-07T14:36:03.298Z,1.93
2018-08-07T14:41:06.595Z,1.60
2018-08-07T14:46:10.490Z,1.70
2018-08-07T14:51:14.411Z,2.33
2018-08-07T14:56:17.852Z,2.13
2018-08-07T15:01:21.702Z,2.70
2018-08-07T15:06:25.166Z,2.40
2018-08-07T15:11:28.607Z,2.67
2018-08-07T15:16:32.291Z,2.90
2018-08-07T15:21:35.918Z,3.10
2018-08-07T15:26:39.366Z,3.03
2018-08-07T15:31:43.097Z,2.50
2018-08-07T15:36:46.973Z,3.10
2018-08-07T15:41:50.514Z,3.37
2018-08-07T15:46:54.225Z,3.90
2018-08-07T15:51:58.057Z,3.27
2018-08-07T15:57:01.462Z,3.60
2018-08-07T16:02:04.879Z,3.10
2018-08-07T16:07:08.410Z,3.43
2018-08-07T16:12:12.247Z,3.80
2018-08-07T16:17:15.660Z,3.73
2018-08-07T16:22:19.033Z,3.83
2018-08-07T16:27:22.889Z,4.10
2018-08-07T16:32:27.223Z,4.07
2018-08-07T16:37:31.181Z,4.20
2018-08-07T16:42:35.015Z,4.27
2018-08-07T16:47:38.939Z,4.47
2018-08-07T16:52:42.652Z,4.40
2018-08-07T16:57:46.079Z,4.40
2018-08-07T17:02:50.472Z,3.60
2018-08-07T17:07:55.019Z,3.80
2018-08-07T17:12:58.412Z,4.07
2018-08-07T17:18:02.249Z,4.37
2018-08-07T17:23:06.034Z,4.67
2018-08-07T17:28:11.546Z,4.93
2018-08-07T17:33:15.052Z,4.17
2018-08-07T17:38:18.412Z,4.20
2018-08-07T17:43:21.687Z,5.13
2018-08-07T17:48:25.248Z,4.50
2018-08-07T17:53:28.756Z,4.67
2018-08-07T17:58:32.569Z,4.80
2018-08-07T18:03:35.877Z,3.80
2018-08-07T18:08:40.289Z,4.23
2018-08-07T18:13:44.948Z,4.50
2018-08-07T18:18:48.578Z,4.27
2018-08-07T18:23:52.223Z,4.80
2018-08-07T18:28:55.582Z,4.40
2018-08-07T18:33:58.932Z,3.87
2018-08-07T18:39:02.912Z,4.10
2018-08-07T18:44:06.588Z,4.30
2018-08-07T18:49:10.663Z,5.13
2018-08-07T18:54:14.573Z,4.37
2018-08-07T18:59:17.852Z,5.50
2018-08-07T19:04:21.138Z,4.80
2018-08-07T19:09:24.551Z,4.63
2018-08-07T19:14:28.016Z,3.93
2018-08-07T19:19:31.386Z,3.87
2018-08-07T19:24:34.809Z,3.40
2018-08-07T19:29:38.065Z,3.80
2018-08-07T19:34:41.680Z,4.20
2018-08-07T19:39:44.919Z,3.80
2018-08-07T19:44:48.206Z,3.90
2018-08-07T19:49:51.637Z,4.23
2018-08-07T19:54:54.970Z,3.60
2018-08-07T19:59:58.487Z,4.57
2018-08-07T20:05:02.496Z,3.83
2018-08-07T20:10:07.808Z,3.73
2018-08-07T20:15:15.927Z,4.10
2018-08-07T20:20:19.560Z,4.20
2018-08-07T20:25:23.137Z,4.10
2018-08-07T20:30:26.561Z,4.30
2018-08-07T20:35:29.982Z,4.57
2018-08-07T20:40:33.450Z,3.97
2018-08-07T20:45:36.719Z,4.07
2018-08-07T20:50:40.858Z,3.70
2018-08-07T20:55:44.195Z,3.70
2018-08-07T21:00:47.655Z,4.23
2018-08-07T21:05:51.332Z,4.00
2018-08-07T21:10:54.859Z,4.37
2018-08-07T21:15:59.214Z,3.90
2018-08-07T21:21:02.916Z,3.87
2018-08-07T21:26:07.617Z,3.80
2018-08-07T21:31:11.162Z,3.80
2018-08-07T21:36:14.555Z,3.50
2018-08-07T21:41:18.190Z,4.03
2018-08-07T21:46:21.648Z,3.67
2018-08-07T21:51:25.900Z,3.10
2018-08-07T21:56:29.413Z,3.67
2018-08-07T22:01:33.661Z,3.27
2018-08-07T22:06:37.511Z,3.23
2018-08-07T22:11:41.009Z,3.77
2018-08-07T22:16:44.620Z,3.47
2018-08-07T22:21:48.621Z,2.80
2018-08-07T22:26:52.025Z,2.77
2018-08-07T22:31:55.898Z,2.80
2018-08-07T22:36:59.680Z,3.00
2018-08-07T22:42:02.993Z,3.27
2018-08-07T22:47:06.422Z,3.07
2018-08-07T22:52:09.687Z,2.90
2018-08-07T22:57:13.189Z,2.70
2018-08-07T23:02:16.799Z,3.13
2018-08-07T23:07:20.445Z,2.60
2018-08-07T23:12:23.828Z,2.97
2018-08-07T23:17:27.745Z,2.97
2018-08-07T23:22:31.021Z,3.20
2018-08-07T23:27:34.666Z,2.90
2018-08-07T23:32:38.050Z,2.20
2018-08-07T23:37:41.640Z,3.20
2018-08-07T23:42:45.642Z,2.30
2018-08-07T23:47:48.914Z,2.60
2018-08-07T23:52:52.771Z,2.53
2018-08-07T23:58:02.582Z,2.70
